createdAt,value
2022-10-26T00:02:29.729Z,11.64
2022-10-26T00:07:29.812Z,11.75
2022-10-26T00:12:29.654Z,11.86
2022-10-26T00:17:29.451Z,11.96
2022-10-26T00:22:29.420Z,12.09
2022-10-26T00:27:29.516Z,12.14
2022-10-26T00:32:29.416Z,12.16
2022-10-26T00:37:29.305Z,12.23
2022-10-26T00:42:29.199Z,12.38
2022-10-26T00:47:29.190Z,12.39
2022-10-26T00:52:29.087Z,12.50
2022-10-26T00:57:29.052Z,12.57
2022-10-26T01:02:29.098Z,12.59
2022-10-26T01:07:28.918Z,12.59
2022-10-26T01:12:28.991Z,12.64
2022-10-26T01:17:28.831Z,12.68
2022-10-26T01:22:30.857Z,12.70
2022-10-26T01:27:28.699Z,12.79
2022-10-26T01:32:28.616Z,12.85
2022-10-26T01:37:28.553Z,12.79
2022-10-26T01:42:28.487Z,12.83
2022-10-26T01:47:28.548Z,12.87
2022-10-26T01:52:28.490Z,12.96
2022-10-26T01:57:28.447Z,13.03
2022-10-26T02:02:29.297Z,12.97
2022-10-26T02:07:28.194Z,13.03
2022-10-26T02:12:28.150Z,13.03
2022-10-26T02:17:28.184Z,13.29
2022-10-26T02:22:28.064Z,13.42
2022-10-26T02:27:28.021Z,13.67
2022-10-26T02:32:28.006Z,13.66
2022-10-26T02:37:27.982Z,13.69
2022-10-26T02:42:27.820Z,13.78
2022-10-26T02:47:27.831Z,13.84
2022-10-26T02:52:27.738Z,13.88
2022-10-26T02:57:27.689Z,13.78
2022-10-26T03:02:27.600Z,13.87
2022-10-26T03:07:27.530Z,13.92
2022-10-26T03:12:27.515Z,14.04
2022-10-26T03:17:27.441Z,14.21
2022-10-26T03:22:27.411Z,14.14
2022-10-26T03:27:27.328Z,14.18
2022-10-26T03:32:27.268Z,14.29
2022-10-26T03:37:27.207Z,14.40
2022-10-26T03:42:27.237Z,14.40
2022-10-26T03:47:27.087Z,14.47
2022-10-26T03:52:27.117Z,14.64
2022-10-26T03:57:27.091Z,14.83
2022-10-26T04:02:26.987Z,14.84
2022-10-26T04:07:26.971Z,14.83
2022-10-26T04:12:26.904Z,14.92
2022-10-26T04:17:27.914Z,14.96
2022-10-26T04:22:28.045Z,15.10
2022-10-26T04:27:26.722Z,15.34
2022-10-26T04:32:26.602Z,15.25
2022-10-26T04:37:26.543Z,15.19
2022-10-26T04:42:26.500Z,15.19
2022-10-26T04:47:26.435Z,15.09
2022-10-26T04:52:26.385Z,15.20
2022-10-26T04:57:26.321Z,15.28
2022-10-26T05:02:26.420Z,15.21
2022-10-26T05:07:26.398Z,15.21
2022-10-26T05:12:26.201Z,15.25
2022-10-26T05:17:27.121Z,15.39
2022-10-26T05:22:26.070Z,15.35
2022-10-26T05:27:26.087Z,15.23
2022-10-26T05:32:26.019Z,15.10
2022-10-26T05:37:25.880Z,14.92
2022-10-26T05:42:25.831Z,14.96
2022-10-26T05:47:25.883Z,14.84
2022-10-26T05:52:25.709Z,14.69
2022-10-26T05:57:25.659Z,14.69
2022-10-26T06:02:25.758Z,14.78
2022-10-26T06:07:26.602Z,14.95
2022-10-26T06:12:27.594Z,15.09
2022-10-26T06:17:25.673Z,15.02
2022-10-26T06:22:25.697Z,14.99
2022-10-26T06:27:29.671Z,15.06
2022-10-26T06:32:25.367Z,14.99
2022-10-26T06:37:25.324Z,14.99
2022-10-26T06:42:25.794Z,15.11
2022-10-26T06:47:25.169Z,15.11
2022-10-26T06:52:26.255Z,15.19
2022-10-26T06:57:25.344Z,15.16
2022-10-26T07:02:25.844Z,15.27
2022-10-26T07:07:51.540Z,15.27
2022-10-26T07:12:25.463Z,15.50
2022-10-26T07:17:24.903Z,15.54
2022-10-26T07:22:24.829Z,15.64
2022-10-26T07:27:24.646Z,15.75
2022-10-26T07:32:24.614Z,15.97
2022-10-26T07:37:24.577Z,16.02
2022-10-26T07:42:24.498Z,16.07
2022-10-26T07:47:24.564Z,16.27
2022-10-26T07:52:24.392Z,16.30
2022-10-26T07:57:24.417Z,16.45
2022-10-26T08:02:24.381Z,16.78
2022-10-26T08:07:24.266Z,16.85
2022-10-26T08:12:24.186Z,16.97
2022-10-26T08:17:24.161Z,17.15
2022-10-26T08:22:24.095Z,17.26
2022-10-26T08:27:24.014Z,17.86
2022-10-26T08:32:23.959Z,17.90
2022-10-26T08:37:23.895Z,17.84
2022-10-26T08:42:23.906Z,17.90
2022-10-26T08:47:23.991Z,17.89
2022-10-26T08:52:23.790Z,18.33
2022-10-26T08:57:23.770Z,18.05
2022-10-26T09:02:23.709Z,18.32
2022-10-26T09:07:23.642Z,18.33
2022-10-26T09:12:23.500Z,18.41
2022-10-26T09:17:25.449Z,18.66
2022-10-26T09:22:23.389Z,18.66
2022-10-26T09:27:23.348Z,18.63
2022-10-26T09:32:23.283Z,18.48
2022-10-26T09:37:23.286Z,18.51
2022-10-26T09:42:23.243Z,18.95
2022-10-26T09:47:23.159Z,18.76
2022-10-26T09:52:23.094Z,18.67
2022-10-26T09:57:25.090Z,19.11
2022-10-26T10:02:23.045Z,19.40
2022-10-26T10:07:22.945Z,19.46
2022-10-26T10:12:23.024Z,19.84
2022-10-26T10:17:22.807Z,20.11
2022-10-26T10:22:22.774Z,20.01
2022-10-26T10:27:22.755Z,20.08
2022-10-26T10:32:26.078Z,20.20
2022-10-26T10:37:22.637Z,20.42
2022-10-26T10:42:22.586Z,20.47
2022-10-26T10:47:22.532Z,20.28
2022-10-26T10:52:26.940Z,20.33
2022-10-26T10:57:22.472Z,20.73
2022-10-26T11:02:22.449Z,20.61
2022-10-26T11:07:22.212Z,20.41
2022-10-26T11:12:22.219Z,20.67
2022-10-26T11:17:22.138Z,20.59
2022-10-26T11:22:22.091Z,20.58
2022-10-26T11:27:22.032Z,20.64
2022-10-26T11:32:21.987Z,20.77
2022-10-26T11:37:29.887Z,20.87
2022-10-26T11:42:21.865Z,20.80
2022-10-26T11:47:21.784Z,20.79
2022-10-26T11:52:21.740Z,20.85
2022-10-26T11:57:21.676Z,20.99
2022-10-26T12:02:21.721Z,20.92
2022-10-26T12:07:21.661Z,20.98
2022-10-26T12:12:21.596Z,21.04
2022-10-26T12:17:26.964Z,21.04
2022-10-26T12:22:29.397Z,21.09
2022-10-26T12:27:24.560Z,21.03
2022-10-26T12:32:21.305Z,21.06
2022-10-26T12:37:21.261Z,21.06
2022-10-26T12:42:21.180Z,21.07
2022-10-26T12:47:21.122Z,21.12
2022-10-26T12:52:21.105Z,21.09
2022-10-26T12:57:21.043Z,21.19
2022-10-26T13:02:20.997Z,20.92
2022-10-26T13:07:20.925Z,21.03
2022-10-26T13:12:29.775Z,20.95
2022-10-26T13:17:20.889Z,20.92
2022-10-26T13:22:20.737Z,20.99
2022-10-26T13:27:20.714Z,20.87
2022-10-26T13:32:20.652Z,20.97
2022-10-26T13:37:20.659Z,20.89
2022-10-26T13:42:20.634Z,20.91
2022-10-26T13:47:20.589Z,20.69
2022-10-26T13:52:20.496Z,20.80
2022-10-26T13:57:20.365Z,20.95
2022-10-26T14:02:20.344Z,20.70
2022-10-26T14:07:20.262Z,20.77
2022-10-26T14:12:20.261Z,20.62
2022-10-26T14:17:20.147Z,20.72
2022-10-26T14:22:23.074Z,20.59
2022-10-26T14:27:20.032Z,20.62
2022-10-26T14:32:20.015Z,20.47
2022-10-26T14:37:19.914Z,20.48
2022-10-26T14:42:19.886Z,20.51
2022-10-26T14:47:19.827Z,20.42
2022-10-26T14:52:19.754Z,20.38
2022-10-26T14:57:19.798Z,20.29
2022-10-26T15:02:19.824Z,20.21
2022-10-26T15:07:19.689Z,20.13
2022-10-26T15:12:19.576Z,20.11
2022-10-26T15:17:19.485Z,20.08
2022-10-26T15:22:19.419Z,19.87
2022-10-26T15:27:19.365Z,20.02
2022-10-26T15:32:19.308Z,19.87
2022-10-26T15:37:19.380Z,19.65
2022-10-26T15:42:19.277Z,19.50
2022-10-26T15:47:19.241Z,19.32
2022-10-26T15:52:19.157Z,19.19
2022-10-26T15:57:21.390Z,18.87
2022-10-26T16:02:19.090Z,18.82
2022-10-26T16:07:18.928Z,18.65
2022-10-26T16:12:18.938Z,18.41
2022-10-26T16:17:18.800Z,18.27
2022-10-26T16:22:18.753Z,18.30
2022-10-26T16:27:18.789Z,18.10
2022-10-26T16:32:18.718Z,17.90
2022-10-26T16:37:18.639Z,17.66
2022-10-26T16:42:18.602Z,17.46
2022-10-26T16:47:18.533Z,17.34
2022-10-26T16:52:18.442Z,17.18
2022-10-26T16:57:18.390Z,16.97
2022-10-26T17:02:18.507Z,16.88
2022-10-26T17:07:18.359Z,16.68
2022-10-26T17:12:19.324Z,16.76
2022-10-26T17:17:18.144Z,16.71
2022-10-26T17:22:18.080Z,16.67
2022-10-26T17:27:18.032Z,16.67
2022-10-26T17:32:17.989Z,16.60
2022-10-26T17:37:18.015Z,16.64
2022-10-26T17:42:17.849Z,16.68
2022-10-26T17:47:17.812Z,16.73
2022-10-26T17:52:17.849Z,16.64
2022-10-26T17:57:17.805Z,16.48
2022-10-26T18:02:17.942Z,16.41
2022-10-26T18:07:18.630Z,16.28
2022-10-26T18:12:17.525Z,16.12
2022-10-26T18:17:17.510Z,16.01
2022-10-26T18:22:17.417Z,16.05
2022-10-26T18:27:17.350Z,15.93
2022-10-26T18:32:17.340Z,15.82
2022-10-26T18:37:17.250Z,15.75
2022-10-26T18:42:17.311Z,15.59
2022-10-26T18:47:17.252Z,15.56
2022-10-26T18:52:17.080Z,15.54
2022-10-26T18:57:17.098Z,15.47
2022-10-26T19:02:16.969Z,15.35
2022-10-26T19:07:16.918Z,15.31
2022-10-26T19:12:16.867Z,15.27
2022-10-26T19:17:16.826Z,15.13
2022-10-26T19:22:16.761Z,15.17
2022-10-26T19:32:26.522Z,15.27
2022-10-26T19:37:16.683Z,15.10
2022-10-26T19:42:16.636Z,15.09
2022-10-26T19:47:16.469Z,15.10
2022-10-26T19:57:16.438Z,15.11
2022-10-26T20:02:16.371Z,15.10
2022-10-26T20:07:16.375Z,15.10
2022-10-26T20:12:16.334Z,15.07
2022-10-26T20:17:16.287Z,15.03
2022-10-26T20:22:19.641Z,15.03
2022-10-26T20:27:16.174Z,15.03
2022-10-26T20:32:16.081Z,15.02
2022-10-26T20:37:16.134Z,14.99
2022-10-26T20:42:15.978Z,14.96
2022-10-26T20:47:15.998Z,14.84
2022-10-26T20:52:21.145Z,14.83
2022-10-26T20:57:17.155Z,14.80
2022-10-26T21:02:15.936Z,14.69
2022-10-26T21:07:15.999Z,14.69
2022-10-26T21:12:15.766Z,14.70
2022-10-26T21:17:15.733Z,14.73
2022-10-26T21:22:17.141Z,14.68
2022-10-26T21:27:15.624Z,14.64
2022-10-26T21:32:16.512Z,14.61
2022-10-26T21:37:15.343Z,14.61
2022-10-26T21:42:15.406Z,14.61
2022-10-26T21:47:15.569Z,14.58
2022-10-26T21:52:15.138Z,14.47
2022-10-26T21:57:15.079Z,14.62
2022-10-26T22:02:15.198Z,14.69
2022-10-26T22:07:16.108Z,14.73
2022-10-26T22:12:15.081Z,14.72
2022-10-26T22:17:15.017Z,14.62
2022-10-26T22:22:14.983Z,14.52
2022-10-26T22:27:14.897Z,14.39
2022-10-26T22:32:14.746Z,14.29
2022-10-26T22:37:14.649Z,14.32
2022-10-26T22:42:14.582Z,14.35
2022-10-26T22:47:14.558Z,14.29
2022-10-26T22:52:14.629Z,14.29
2022-10-26T22:57:14.459Z,14.33
2022-10-26T23:02:14.615Z,14.28
2022-10-26T23:07:14.385Z,14.35
2022-10-26T23:12:14.392Z,14.37
2022-10-26T23:17:14.312Z,14.40
2022-10-26T23:22:14.104Z,14.37
2022-10-26T23:27:14.096Z,14.35
2022-10-26T23:32:14.031Z,14.42
2022-10-26T23:37:13.982Z,14.42
2022-10-26T23:42:13.927Z,14.54
2022-10-26T23:47:15.141Z,14.46
2022-10-26T23:52:14.099Z,14.51
2022-10-26T23:57:13.764Z,14.52
